Time;durP1;ratioP1;P1;durP2;ratioP2;P2;SDS_P1;SDS_P2;PMS_P1;PMS_P2;Temp;Humidity;BMP_temperature;BMP_pressure;BME280_temperature;BME280_humidity;BME280_pressure;Samples;Min_cycle;Max_cycle;Signal;HPM_P1;HPM_P2
2022/10/20 00:00:07;;;;;;;5.87;5.00;;;7.60;1.00;;;;;;6376385;27;20428;-53
2022/10/20 00:03:11;;;;;;;4.87;4.57;;;7.70;1.00;;;;;;6385689;27;20257;-53
2022/10/20 00:06:16;;;;;;;4.70;4.50;;;7.50;1.00;;;;;;6387336;27;20237;-53
2022/10/20 00:09:19;;;;;;;5.33;5.00;;;7.50;1.00;;;;;;6386493;27;20234;-53
2022/10/20 00:12:22;;;;;;;5.00;4.80;;;7.70;1.00;;;;;;6366402;27;20879;-54
2022/10/20 00:15:25;;;;;;;5.33;5.13;;;7.40;1.00;;;;;;6384684;27;20239;-52
2022/10/20 00:18:29;;;;;;;5.03;4.80;;;7.40;1.00;;;;;;6387406;27;20395;-53
2022/10/20 00:21:32;;;;;;;5.23;5.00;;;7.60;1.00;;;;;;6368600;27;20239;-54
2022/10/20 00:24:35;;;;;;;5.57;5.07;;;7.40;1.00;;;;;;6371393;27;20231;-62
2022/10/20 00:27:38;;;;;;;5.77;5.37;;;7.50;1.00;;;;;;6386824;27;20242;-53
2022/10/20 00:30:41;;;;;;;5.13;4.93;;;7.60;1.00;;;;;;6375966;27;20289;-57
2022/10/20 00:33:45;;;;;;;5.93;5.53;;;7.50;1.00;;;;;;6367226;27;20715;-53
2022/10/20 00:36:48;;;;;;;5.50;5.17;;;7.40;1.00;;;;;;6369210;27;20227;-54
2022/10/20 00:39:53;;;;;;;5.20;4.80;;;7.30;1.00;;;;;;6371532;27;20234;-54
2022/10/20 00:42:56;;;;;;;5.30;5.10;;;7.30;1.00;;;;;;6379221;27;20234;-54
2022/10/20 00:45:59;;;;;;;4.90;4.70;;;7.30;1.00;;;;;;6363452;27;20239;-53
2022/10/20 00:49:11;;;;;;;5.03;4.83;;;7.20;1.00;;;;;;6363115;27;20231;-53
2022/10/20 00:52:17;;;;;;;5.17;4.77;;;7.30;1.00;;;;;;6363478;27;20726;-53
2022/10/20 00:55:24;;;;;;;4.90;4.50;;;7.10;1.00;;;;;;6367623;27;20412;-53
2022/10/20 00:58:28;;;;;;;5.00;4.70;;;7.00;1.00;;;;;;6380752;27;20666;-53
2022/10/20 01:01:31;;;;;;;5.20;5.00;;;6.90;1.00;;;;;;6388619;27;20256;-53
2022/10/20 01:04:37;;;;;;;4.40;4.30;;;7.20;1.00;;;;;;6379956;27;20242;-53
2022/10/20 01:07:40;;;;;;;4.57;4.20;;;7.20;1.00;;;;;;6372455;27;20655;-54
2022/10/20 01:10:51;;;;;;;4.30;4.13;;;7.00;1.00;;;;;;6388755;27;20922;-53
2022/10/20 01:14:07;;;;;;;4.53;4.33;;;7.20;1.00;;;;;;6383325;27;20368;-53
2022/10/20 01:17:19;;;;;;;5.60;4.40;;;6.90;1.00;;;;;;6371280;27;20254;-54
2022/10/20 01:20:54;;;;;;;4.20;4.10;;;7.00;1.00;;;;;;6366295;27;20232;-57
2022/10/20 01:24:19;;;;;;;4.97;4.77;;;7.00;1.00;;;;;;6363622;27;20259;-54
2022/10/20 01:27:33;;;;;;;4.77;4.57;;;7.10;1.00;;;;;;6371133;27;20595;-53
2022/10/20 01:30:43;;;;;;;4.60;4.13;;;6.90;1.00;;;;;;6386342;27;20632;-53
2022/10/20 01:33:53;;;;;;;4.57;4.27;;;6.80;1.00;;;;;;6386524;27;20231;-54
2022/10/20 01:37:01;;;;;;;5.13;4.70;;;6.90;1.00;;;;;;6388320;27;20231;-53
2022/10/20 01:40:12;;;;;;;4.87;4.57;;;7.10;1.00;;;;;;6383132;27;20262;-53
2022/10/20 01:43:20;;;;;;;5.33;5.10;;;7.10;1.00;;;;;;6388288;27;20250;-56
2022/10/20 01:46:26;;;;;;;4.90;4.60;;;7.00;1.00;;;;;;6387736;27;20245;-53
2022/10/20 01:49:29;;;;;;;4.70;4.50;;;7.00;1.00;;;;;;6373581;27;20726;-53
2022/10/20 01:52:32;;;;;;;4.50;4.30;;;7.00;1.00;;;;;;6361667;27;20231;-53
2022/10/20 01:55:38;;;;;;;4.70;4.50;;;7.00;1.00;;;;;;6362411;27;20699;-53
2022/10/20 01:59:06;;;;;;;12.20;4.80;;;7.00;1.00;;;;;;6379212;27;20272;-51
2022/10/20 02:02:27;;;;;;;5.50;5.10;;;6.70;1.00;;;;;;6385974;27;20230;-53
2022/10/20 02:05:44;;;;;;;4.77;4.40;;;6.90;1.00;;;;;;6387312;27;20269;-53
2022/10/20 02:08:50;;;;;;;4.63;4.43;;;6.80;1.00;;;;;;6378261;27;20242;-52
2022/10/20 02:12:01;;;;;;;4.70;4.40;;;6.80;1.00;;;;;;6362082;27;20420;-53
2022/10/20 02:15:07;;;;;;;5.10;4.70;;;6.80;1.00;;;;;;6361660;27;20245;-53
2022/10/20 02:18:14;;;;;;;4.60;4.40;;;6.70;1.00;;;;;;6373568;27;20235;-54
2022/10/20 02:21:17;;;;;;;5.20;4.83;;;6.90;1.00;;;;;;6361446;27;20611;-54
2022/10/20 02:24:23;;;;;;;4.77;4.47;;;6.80;1.00;;;;;;6360997;27;20234;-54
2022/10/20 02:27:30;;;;;;;4.53;4.37;;;6.90;1.00;;;;;;6370720;27;20227;-52
2022/10/20 02:30:36;;;;;;;4.90;4.57;;;6.80;1.00;;;;;;6360353;27;20467;-53
2022/10/20 02:33:39;;;;;;;4.87;4.03;;;6.60;1.00;;;;;;6359570;27;20757;-53
2022/10/20 02:36:43;;;;;;;3.90;3.80;;;6.70;1.00;;;;;;6362330;27;20231;-54
2022/10/20 02:39:46;;;;;;;4.60;4.20;;;6.60;1.00;;;;;;6383885;27;20239;-53
2022/10/20 02:42:48;;;;;;;4.70;4.60;;;6.50;1.00;;;;;;6381959;27;20258;-53
2022/10/20 02:45:53;;;;;;;4.93;4.63;;;6.50;1.00;;;;;;6360046;27;20238;-56
2022/10/20 02:48:56;;;;;;;4.50;4.30;;;6.60;1.00;;;;;;6360196;27;20592;-52
2022/10/20 02:51:58;;;;;;;4.20;4.10;;;6.70;1.00;;;;;;6368414;27;20242;-54
2022/10/20 02:55:01;;;;;;;4.60;4.20;;;6.60;1.00;;;;;;6360250;27;20238;-53
2022/10/20 02:58:04;;;;;;;5.13;4.73;;;6.60;1.00;;;;;;6377390;27;20234;-60
2022/10/20 03:01:08;;;;;;;4.80;4.60;;;6.30;1.00;;;;;;6385426;27;20249;-54
2022/10/20 03:04:11;;;;;;;4.53;4.33;;;6.40;1.00;;;;;;6383121;27;20726;-54
2022/10/20 03:07:14;;;;;;;4.00;3.83;;;6.60;1.00;;;;;;6367962;27;20714;-53
2022/10/20 03:10:17;;;;;;;4.90;4.70;;;6.60;1.00;;;;;;6381945;27;20234;-54
2022/10/20 03:13:20;;;;;;;5.73;5.30;;;6.40;1.00;;;;;;6377490;27;20607;-53
2022/10/20 03:16:24;;;;;;;4.80;4.40;;;6.30;1.00;;;;;;6359454;27;20880;-53
2022/10/20 03:19:27;;;;;;;4.63;4.23;;;6.30;1.00;;;;;;6358802;27;20235;-53
2022/10/20 03:22:30;;;;;;;5.03;4.73;;;6.60;1.00;;;;;;6360125;27;20409;-54
2022/10/20 03:25:33;;;;;;;5.07;4.80;;;6.50;1.00;;;;;;6360410;27;20235;-54
2022/10/20 03:28:35;;;;;;;5.00;4.70;;;6.30;1.00;;;;;;6383250;27;20231;-55
2022/10/20 03:31:40;;;;;;;4.90;4.70;;;6.50;1.00;;;;;;6372183;27;20249;-53
2022/10/20 03:34:43;;;;;;;5.67;5.23;;;6.20;1.00;;;;;;6382275;27;20715;-54
2022/10/20 03:37:45;;;;;;;4.80;4.60;;;6.20;1.00;;;;;;6384565;27;20432;-54
2022/10/20 03:40:48;;;;;;;4.97;4.67;;;6.10;1.00;;;;;;6384856;27;20241;-53
2022/10/20 03:43:51;;;;;;;5.23;4.83;;;6.40;1.00;;;;;;6386441;27;20242;-54
2022/10/20 03:46:55;;;;;;;5.57;5.20;;;6.30;1.00;;;;;;6382723;27;20227;-53
2022/10/20 03:49:58;;;;;;;6.57;6.17;;;6.10;1.00;;;;;;6356482;27;20622;-50
2022/10/20 03:53:01;;;;;;;5.83;5.43;;;6.40;1.00;;;;;;6385589;27;20404;-52
2022/10/20 03:56:08;;;;;;;5.57;5.23;;;6.00;1.00;;;;;;6376883;27;20395;-53
2022/10/20 03:59:11;;;;;;;6.43;5.50;;;6.00;1.00;;;;;;6385803;27;20235;-57
2022/10/20 04:02:30;;;;;;;5.17;4.97;;;6.10;1.00;;;;;;6384209;27;20750;-54
2022/10/20 04:05:33;;;;;;;5.47;4.97;;;6.40;1.00;;;;;;6382369;27;20230;-53
2022/10/20 04:08:36;;;;;;;5.50;5.10;;;6.00;1.00;;;;;;6386062;27;20666;-53
2022/10/20 04:11:39;;;;;;;5.93;5.33;;;6.00;1.00;;;;;;6382842;27;20254;-52
2022/10/20 04:14:41;;;;;;;5.47;5.20;;;5.90;1.00;;;;;;6387812;27;20241;-56
2022/10/20 04:17:46;;;;;;;5.50;5.00;;;6.00;1.00;;;;;;6388061;27;20257;-53
2022/10/20 04:20:48;;;;;;;5.40;4.90;;;6.00;1.00;;;;;;6384049;27;20228;-54
2022/10/20 04:23:51;;;;;;;5.77;5.27;;;5.80;1.00;;;;;;6388842;27;20234;-52
2022/10/20 04:26:54;;;;;;;5.67;5.37;;;5.90;1.00;;;;;;6389011;27;20492;-53
2022/10/20 04:29:57;;;;;;;5.50;5.20;;;6.00;1.00;;;;;;6388473;27;20284;-49
2022/10/20 04:33:01;;;;;;;5.43;5.03;;;5.80;1.00;;;;;;6387189;27;20238;-52
2022/10/20 04:36:05;;;;;;;5.10;4.90;;;5.70;1.00;;;;;;6388910;27;20377;-53
2022/10/20 04:39:08;;;;;;;5.60;5.30;;;5.90;1.00;;;;;;6384486;27;20226;-53
2022/10/20 04:42:11;;;;;;;5.73;5.43;;;5.70;1.00;;;;;;6388183;27;20249;-53
2022/10/20 04:45:14;;;;;;;5.57;5.23;;;5.80;1.00;;;;;;6383460;27;20234;-52
2022/10/20 04:48:18;;;;;;;6.00;5.60;;;5.90;1.00;;;;;;6387692;27;20238;-52
2022/10/20 04:51:21;;;;;;;6.60;6.10;;;5.70;1.00;;;;;;6386376;27;20444;-54
2022/10/20 04:54:24;;;;;;;7.00;6.30;;;5.80;1.00;;;;;;6382276;27;20269;-54
2022/10/20 04:57:27;;;;;;;7.33;6.60;;;6.00;1.00;;;;;;6387342;27;20472;-54
2022/10/20 05:00:30;;;;;;;8.13;5.90;;;5.90;1.00;;;;;;6387828;27;20235;-54
2022/10/20 05:03:35;;;;;;;7.13;6.13;;;5.80;1.00;;;;;;6385132;27;20719;-54
2022/10/20 05:06:38;;;;;;;6.20;5.80;;;5.80;1.00;;;;;;6378007;27;20226;-52
2022/10/20 05:09:40;;;;;;;9.10;5.93;;;5.70;1.00;;;;;;6387520;27;20488;-53
2022/10/20 05:12:43;;;;;;;6.77;5.90;;;5.70;1.00;;;;;;6386778;27;20230;-53
2022/10/20 05:15:52;;;;;;;6.67;5.90;;;5.70;1.00;;;;;;6384716;27;20239;-54
2022/10/20 05:18:56;;;;;;;7.30;6.60;;;5.60;1.00;;;;;;6386956;27;20234;-52
2022/10/20 05:21:59;;;;;;;6.50;6.00;;;5.70;1.00;;;;;;6387683;27;20234;-53
2022/10/20 05:25:02;;;;;;;8.97;6.43;;;5.60;1.00;;;;;;6388200;27;20231;-56
2022/10/20 05:28:25;;;;;;;6.57;5.97;;;5.50;1.00;;;;;;6379484;27;20223;-53
2022/10/20 05:31:28;;;;;;;6.80;6.20;;;5.70;1.00;;;;;;6387473;27;20238;-53
2022/10/20 05:34:32;;;;;;;6.80;6.20;;;5.60;1.00;;;;;;6381736;27;20591;-55
2022/10/20 05:37:35;;;;;;;6.53;6.03;;;5.70;1.00;;;;;;6384243;27;20239;-53
2022/10/20 05:40:38;;;;;;;7.70;6.40;;;5.70;1.00;;;;;;6384305;27;20231;-53
2022/10/20 05:43:40;;;;;;;7.83;6.70;;;5.70;1.00;;;;;;6385489;27;20234;-53
2022/10/20 05:46:43;;;;;;;10.93;7.53;;;5.70;1.00;;;;;;6382108;27;20377;-53
2022/10/20 05:49:48;;;;;;;8.53;7.63;;;5.60;1.00;;;;;;6386922;27;20235;-53
2022/10/20 05:52:50;;;;;;;9.03;7.80;;;5.50;1.00;;;;;;6382919;27;20592;-54
2022/10/20 05:55:53;;;;;;;8.47;7.67;;;5.70;1.00;;;;;;6380934;27;20377;-55
2022/10/20 05:58:57;;;;;;;9.20;8.20;;;5.70;1.00;;;;;;6383115;27;20534;-53
2022/10/20 06:02:00;;;;;;;12.93;8.53;;;5.80;1.00;;;;;;6385310;27;20249;-53
2022/10/20 06:05:05;;;;;;;8.17;7.47;;;5.60;1.00;;;;;;6382215;27;20234;-53
2022/10/20 06:08:07;;;;;;;7.97;7.03;;;5.70;1.00;;;;;;6377281;27;20398;-51
2022/10/20 06:11:12;;;;;;;7.93;7.27;;;5.60;1.00;;;;;;6384677;27;20333;-54
2022/10/20 06:14:16;;;;;;;7.83;7.03;;;5.70;1.00;;;;;;6385406;27;20257;-54
2022/10/20 06:17:18;;;;;;;8.90;7.70;;;5.70;1.00;;;;;;6384514;27;20230;-53
2022/10/20 06:20:22;;;;;;;12.17;7.50;;;5.70;1.00;;;;;;6383797;27;20765;-52
2022/10/20 06:23:26;;;;;;;8.60;7.87;;;5.80;1.00;;;;;;6385164;27;20237;-52
2022/10/20 06:26:31;;;;;;;9.13;8.20;;;5.70;1.00;;;;;;6383967;27;20256;-53
2022/10/20 06:29:34;;;;;;;7.97;7.27;;;5.80;1.00;;;;;;6382411;27;20674;-53
2022/10/20 06:32:37;;;;;;;8.73;8.03;;;5.70;1.00;;;;;;6377109;27;20234;-53
2022/10/20 06:35:42;;;;;;;9.30;8.53;;;5.70;1.00;;;;;;6379211;27;20609;-53
2022/10/20 06:38:45;;;;;;;8.13;7.33;;;6.00;1.00;;;;;;6384595;27;20458;-54
2022/10/20 06:41:49;;;;;;;8.90;8.03;;;5.80;1.00;;;;;;6379150;27;20623;-53
2022/10/20 06:44:53;;;;;;;9.03;8.20;;;5.90;1.00;;;;;;6385251;27;20238;-59
2022/10/20 06:47:56;;;;;;;9.07;8.03;;;6.00;1.00;;;;;;6383636;27;20804;-54
2022/10/20 06:51:03;;;;;;;9.50;8.37;;;6.20;1.00;;;;;;6384449;27;20237;-53
2022/10/20 06:54:06;;;;;;;9.17;8.37;;;6.00;1.00;;;;;;6383693;27;20727;-57
2022/10/20 06:57:08;;;;;;;9.83;8.57;;;6.10;1.00;;;;;;6383179;27;20758;-53
2022/10/20 07:00:12;;;;;;;10.57;8.57;;;6.10;1.00;;;;;;6385842;27;20230;-53
2022/10/20 07:03:15;;;;;;;9.73;8.27;;;6.50;1.00;;;;;;6384852;27;20241;-54
2022/10/20 07:06:21;;;;;;;12.47;8.37;;;6.50;1.00;;;;;;6384091;27;20235;-51
2022/10/20 07:09:24;;;;;;;9.57;8.60;;;6.70;1.00;;;;;;6383447;27;20231;-54
2022/10/20 07:12:27;;;;;;;10.27;8.97;;;6.30;1.00;;;;;;6379428;27;20496;-54
2022/10/20 07:15:30;;;;;;;12.03;9.33;;;6.60;1.00;;;;;;6385734;27;20249;-52
2022/10/20 07:18:33;;;;;;;10.13;9.13;;;6.60;1.00;;;;;;6384267;27;20838;-53
2022/10/20 07:21:37;;;;;;;9.93;8.37;;;6.60;1.00;;;;;;6382927;27;20237;-52
2022/10/20 07:24:46;;;;;;;8.77;7.97;;;6.70;1.00;;;;;;6379716;27;20330;-53
2022/10/20 07:27:48;;;;;;;8.87;8.00;;;7.00;1.00;;;;;;6382707;27;20798;-54
2022/10/20 07:30:51;;;;;;;9.23;7.90;;;7.10;1.00;;;;;;6381237;27;20230;-53
2022/10/20 07:33:57;;;;;;;8.83;8.03;;;6.90;1.00;;;;;;6378572;27;20258;-53
2022/10/20 07:37:17;;;;;;;9.37;8.47;;;6.90;1.00;;;;;;6378247;27;20379;-53
2022/10/20 07:40:19;;;;;;;9.90;9.00;;;7.20;1.00;;;;;;6386396;27;20237;-53
2022/10/20 07:43:22;;;;;;;9.13;8.33;;;7.40;1.00;;;;;;6388162;27;20234;-53
2022/10/20 07:46:25;;;;;;;10.57;8.80;;;7.50;1.00;;;;;;6387778;27;20226;-53
2022/10/20 07:49:28;;;;;;;11.60;9.53;;;7.30;1.00;;;;;;6385180;27;20234;-53
2022/10/20 07:52:51;;;;;;;9.63;8.57;;;7.40;1.00;;;;;;6382491;27;20483;-58
2022/10/20 07:55:54;;;;;;;10.40;8.77;;;7.50;1.00;;;;;;6377407;27;20238;-52
2022/10/20 07:58:57;;;;;;;11.07;8.97;;;7.70;1.00;;;;;;6387418;27;20400;-52
2022/10/20 08:02:00;;;;;;;9.67;8.70;;;7.60;1.00;;;;;;6386845;27;20238;-52
2022/10/20 08:05:04;;;;;;;9.30;7.97;;;7.80;1.00;;;;;;6387040;27;20237;-54
2022/10/20 08:08:08;;;;;;;9.47;8.67;;;8.00;1.00;;;;;;6389061;27;20248;-53
2022/10/20 08:11:11;;;;;;;9.37;8.50;;;8.30;1.00;;;;;;6388418;27;20589;-53
2022/10/20 08:14:14;;;;;;;9.27;7.90;;;8.20;1.00;;;;;;6388053;27;20234;-53
2022/10/20 08:17:17;;;;;;;8.37;7.70;;;8.40;1.00;;;;;;6387546;27;20231;-57
2022/10/20 08:20:20;;;;;;;8.33;7.30;;;8.40;1.00;;;;;;6389816;27;20751;-53
2022/10/20 08:23:32;;;;;;;8.23;7.43;;;8.70;1.00;;;;;;6386590;27;20354;-58
2022/10/20 08:26:34;;;;;;;8.83;7.97;;;8.80;1.00;;;;;;6388667;27;20745;-53
2022/10/20 08:29:38;;;;;;;7.83;7.13;;;9.00;1.00;;;;;;6389451;27;20242;-59
2022/10/20 08:32:40;;;;;;;8.07;7.27;;;9.20;1.00;;;;;;6385205;27;20248;-59
2022/10/20 08:35:43;;;;;;;7.23;6.63;;;9.40;1.00;;;;;;6383161;27;20613;-53
2022/10/20 08:38:47;;;;;;;6.73;6.23;;;9.60;1.00;;;;;;6382588;27;20230;-54
2022/10/20 08:41:51;;;;;;;7.53;6.90;;;9.70;1.00;;;;;;6382219;27;20245;-52
2022/10/20 08:45:15;;;;;;;7.03;6.33;;;9.90;1.00;;;;;;6381573;27;20238;-53
2022/10/20 08:48:22;;;;;;;7.57;6.80;;;10.00;1.00;;;;;;6387509;27;20519;-56
2022/10/20 08:51:30;;;;;;;7.47;6.33;;;10.10;1.00;;;;;;6379090;27;20246;-53
2022/10/20 08:54:34;;;;;;;7.73;6.90;;;10.20;1.00;;;;;;6380813;27;20829;-57
2022/10/20 08:57:37;;;;;;;7.73;6.93;;;10.30;1.00;;;;;;6387030;27;20234;-54
2022/10/20 09:00:42;;;;;;;6.80;6.20;;;10.40;1.00;;;;;;6387070;27;20226;-54
2022/10/20 09:03:49;;;;;;;6.80;6.10;;;10.50;1.00;;;;;;6384915;27;20234;-54
2022/10/20 09:06:57;;;;;;;7.97;7.00;;;10.60;1.00;;;;;;6387136;27;20595;-54
2022/10/20 09:10:07;;;;;;;7.17;6.57;;;10.80;1.00;;;;;;6381034;27;20234;-54
2022/10/20 09:13:17;;;;;;;6.97;6.40;;;11.00;1.00;;;;;;6386970;27;20238;-54
2022/10/20 09:16:26;;;;;;;6.63;6.13;;;11.10;1.00;;;;;;6385816;27;20235;-54
2022/10/20 09:19:49;;;;;;;7.13;6.63;;;11.20;1.00;;;;;;6387167;27;20235;-54
2022/10/20 09:22:52;;;;;;;6.43;5.93;;;11.30;1.00;;;;;;6387299;27;20743;-53
2022/10/20 09:25:56;;;;;;;7.03;6.33;;;11.40;1.00;;;;;;6386096;27;20370;-53
2022/10/20 09:29:07;;;;;;;6.53;6.13;;;11.40;1.00;;;;;;6386738;27;20230;-53
2022/10/20 09:32:21;;;;;;;7.63;6.93;;;11.50;1.00;;;;;;6385241;27;20720;-53
2022/10/20 09:35:47;;;;;;;9.53;6.70;;;11.50;1.00;;;;;;6383329;27;20233;-54
2022/10/20 09:38:52;;;;;;;6.87;6.27;;;11.60;1.00;;;;;;6385905;27;20668;-54
2022/10/20 09:42:03;;;;;;;6.93;6.43;;;11.70;1.00;;;;;;6386489;27;20226;-54
2022/10/20 09:45:15;;;;;;;7.03;6.43;;;11.80;1.00;;;;;;6377883;27;20236;-61
2022/10/20 09:48:23;;;;;;;7.57;6.70;;;11.80;1.00;;;;;;6383526;27;20691;-54
2022/10/20 09:51:28;;;;;;;7.10;6.50;;;11.90;1.00;;;;;;6386798;27;20239;-52
2022/10/20 09:54:31;;;;;;;7.07;6.50;;;11.90;1.00;;;;;;6384789;27;20222;-52
2022/10/20 09:57:36;;;;;;;7.47;6.87;;;12.00;1.00;;;;;;6382356;27;20247;-54
2022/10/20 10:00:46;;;;;;;6.07;5.67;;;12.10;1.00;;;;;;6381013;27;20222;-55
2022/10/20 10:03:51;;;;;;;7.57;6.43;;;12.20;1.00;;;;;;6385195;27;20259;-54
2022/10/20 10:06:54;;;;;;;6.13;5.83;;;12.30;1.00;;;;;;6378830;27;20269;-54
2022/10/20 10:09:58;;;;;;;6.77;6.00;;;12.40;1.00;;;;;;6383799;27;20613;-53
2022/10/20 10:13:23;;;;;;;7.17;6.47;;;12.50;1.00;;;;;;6386340;27;20311;-53
2022/10/20 10:16:27;;;;;;;7.00;6.30;;;12.70;1.00;;;;;;6383624;27;20518;-53
2022/10/20 10:19:33;;;;;;;6.73;6.10;;;12.70;1.00;;;;;;6387142;27;20231;-58
2022/10/20 10:22:36;;;;;;;6.10;5.70;;;12.70;1.00;;;;;;6385913;27;20234;-53
2022/10/20 10:25:39;;;;;;;6.17;5.57;;;12.90;1.00;;;;;;6385235;27;20249;-52
2022/10/20 10:28:43;;;;;;;5.63;5.23;;;13.00;1.00;;;;;;6387457;27;20320;-52
2022/10/20 10:31:52;;;;;;;5.13;4.70;;;13.20;1.00;;;;;;6385317;27;20314;-53
2022/10/20 10:35:07;;;;;;;5.10;4.83;;;13.30;1.00;;;;;;6383939;27;20234;-53
2022/10/20 10:38:12;;;;;;;5.17;4.67;;;13.40;1.00;;;;;;6385435;27;20726;-55
2022/10/20 10:41:23;;;;;;;4.17;3.97;;;13.60;1.00;;;;;;6381312;27;20261;-53
2022/10/20 10:44:40;;;;;;;4.20;4.00;;;13.90;1.00;;;;;;6378993;27;20233;-54
2022/10/20 10:48:08;;;;;;;4.30;4.10;;;13.80;1.00;;;;;;6384311;27;20238;-53
2022/10/20 10:51:20;;;;;;;5.13;4.03;;;14.00;1.00;;;;;;6383429;27;20460;-53
2022/10/20 10:54:36;;;;;;;6.80;4.10;;;13.90;1.00;;;;;;6377865;27;20606;-54
2022/10/20 10:57:52;;;;;;;5.17;4.60;;;14.00;1.00;;;;;;6385004;27;20227;-53
2022/10/20 11:01:07;;;;;;;4.23;4.03;;;14.00;1.00;;;;;;6379216;27;20755;-53
2022/10/20 11:04:51;;;;;;;4.37;4.07;;;13.90;1.00;;;;;;6384299;27;20231;-52
2022/10/20 11:08:06;;;;;;;5.43;5.13;;;14.00;1.00;;;;;;6320705;27;20241;-55
2022/10/20 11:11:17;;;;;;;4.87;4.67;;;14.10;1.00;;;;;;6385915;27;20625;-54
2022/10/20 11:14:34;;;;;;;4.73;4.53;;;14.20;1.00;;;;;;6376459;27;20476;-53
2022/10/20 11:17:52;;;;;;;4.57;4.27;;;14.30;1.00;;;;;;6383926;27;20609;-55
2022/10/20 11:21:06;;;;;;;4.10;3.80;;;14.30;1.00;;;;;;6380543;27;20242;-53
2022/10/20 11:24:21;;;;;;;4.70;4.50;;;14.30;1.00;;;;;;6382734;27;20239;-53
2022/10/20 11:27:27;;;;;;;3.97;3.87;;;14.40;1.00;;;;;;6376201;27;20226;-50
2022/10/20 11:30:33;;;;;;;4.47;4.00;;;14.50;1.00;;;;;;6378448;27;20242;-54
2022/10/20 11:33:43;;;;;;;5.23;3.70;;;14.60;1.00;;;;;;6383032;27;20235;-55
2022/10/20 11:36:51;;;;;;;4.83;4.03;;;14.70;1.00;;;;;;6380989;27;20285;-53
2022/10/20 11:40:02;;;;;;;4.93;3.60;;;14.80;1.00;;;;;;6380993;27;20237;-52
2022/10/20 11:43:19;;;;;;;3.40;3.10;;;14.90;1.00;;;;;;6383240;27;20753;-53
2022/10/20 11:46:30;;;;;;;3.73;3.63;;;15.00;1.00;;;;;;6379622;27;20243;-54
2022/10/20 11:49:34;;;;;;;4.30;3.90;;;15.10;1.00;;;;;;6381908;27;20242;-53
2022/10/20 11:52:52;;;;;;;4.00;3.67;;;15.20;1.00;;;;;;6383264;27;20226;-53
2022/10/20 11:56:21;;;;;;;3.37;3.17;;;15.30;1.00;;;;;;6379419;27;20612;-53
2022/10/20 11:59:46;;;;;;;3.53;3.37;;;15.40;1.00;;;;;;6375984;27;20247;-57
2022/10/20 12:03:23;;;;;;;3.97;3.87;;;15.50;1.00;;;;;;6380633;27;20258;-54
2022/10/20 12:06:58;;;;;;;3.70;3.40;;;15.60;1.00;;;;;;6383870;27;20241;-53
2022/10/20 12:10:15;;;;;;;4.90;3.03;;;15.60;1.00;;;;;;6346438;27;20473;-54
2022/10/20 12:13:33;;;;;;;3.40;3.20;;;15.50;1.00;;;;;;6383844;27;20246;-54
2022/10/20 12:17:15;;;;;;;3.30;3.13;;;15.50;1.00;;;;;;6382815;27;20279;-54
2022/10/20 12:20:58;;;;;;;6.60;3.10;;;15.50;1.00;;;;;;6370202;27;20687;-54
2022/10/20 12:24:06;;;;;;;3.47;3.27;;;15.30;1.00;;;;;;6382774;27;20586;-53
2022/10/20 12:27:28;;;;;;;3.70;3.43;;;15.20;1.00;;;;;;6380825;27;20310;-53
2022/10/20 12:30:43;;;;;;;3.60;3.40;;;15.20;1.00;;;;;;6387466;27;20231;-54
2022/10/20 12:34:02;;;;;;;3.87;3.57;;;15.20;1.00;;;;;;6387081;27;20388;-53
2022/10/20 12:37:07;;;;;;;3.20;3.00;;;15.20;1.00;;;;;;6384976;27;20234;-54
2022/10/20 12:40:24;;;;;;;3.83;3.63;;;15.10;1.00;;;;;;6387447;27;20618;-54
2022/10/20 12:43:49;;;;;;;3.60;3.40;;;15.00;1.00;;;;;;6385654;27;20235;-54
2022/10/20 12:46:55;;;;;;;3.50;3.40;;;15.10;1.00;;;;;;6379210;27;20230;-52
2022/10/20 12:50:04;;;;;;;3.97;3.73;;;15.30;1.00;;;;;;6383322;27;20253;-54
2022/10/20 12:53:13;;;;;;;5.40;3.73;;;15.40;1.00;;;;;;6380299;27;20228;-53
2022/10/20 12:56:20;;;;;;;3.30;3.10;;;15.40;1.00;;;;;;6380780;27;20467;-53
2022/10/20 12:59:38;;;;;;;4.13;3.93;;;15.40;1.00;;;;;;6381807;27;20243;-53
2022/10/20 13:02:51;;;;;;;3.40;3.30;;;15.40;1.00;;;;;;6387873;27;20227;-57
2022/10/20 13:05:54;;;;;;;3.80;3.60;;;15.50;1.00;;;;;;6386829;27;20246;-52
2022/10/20 13:09:21;;;;;;;4.27;4.07;;;15.30;1.00;;;;;;6386063;27;20245;-53
2022/10/20 13:12:27;;;;;;;3.97;3.70;;;15.30;1.00;;;;;;6385232;27;20239;-59
2022/10/20 13:15:35;;;;;;;4.13;3.80;;;15.40;1.00;;;;;;6386847;27;20844;-53
2022/10/20 13:18:45;;;;;;;3.40;3.20;;;15.40;1.00;;;;;;6382430;27;20227;-54
2022/10/20 13:21:49;;;;;;;3.67;3.37;;;15.40;1.00;;;;;;6384276;27;20246;-53
2022/10/20 13:24:52;;;;;;;3.60;3.40;;;15.50;1.00;;;;;;6380879;27;20238;-57
2022/10/20 13:28:07;;;;;;;4.37;3.70;;;15.50;1.00;;;;;;6384671;27;20404;-54
2022/10/20 13:31:19;;;;;;;3.93;3.73;;;15.50;1.00;;;;;;6386308;27;20246;-53
2022/10/20 13:34:29;;;;;;;3.93;3.70;;;15.40;1.00;;;;;;6384560;27;20628;-53
2022/10/20 13:37:47;;;;;;;3.90;3.77;;;15.30;1.00;;;;;;6383407;27;20242;-53
2022/10/20 13:40:58;;;;;;;4.20;3.90;;;15.30;1.00;;;;;;6384843;27;20240;-53
2022/10/20 13:44:22;;;;;;;4.03;3.87;;;15.30;1.00;;;;;;6385505;27;20303;-54
2022/10/20 13:47:46;;;;;;;3.90;3.70;;;15.20;1.00;;;;;;6377606;27;20254;-53
2022/10/20 13:50:55;;;;;;;3.73;3.63;;;15.20;1.00;;;;;;6385655;27;20464;-54
2022/10/20 13:54:02;;;;;;;3.73;3.60;;;15.10;1.00;;;;;;6385528;27;20239;-54
2022/10/20 13:57:07;;;;;;;3.80;3.50;;;15.10;1.00;;;;;;6384917;27;20233;-54
2022/10/20 14:00:18;;;;;;;4.13;3.93;;;15.10;1.00;;;;;;6386118;27;20234;-55
2022/10/20 14:03:23;;;;;;;3.90;3.80;;;15.00;1.00;;;;;;6384503;27;20710;-53
2022/10/20 14:06:30;;;;;;;4.07;3.87;;;14.90;1.00;;;;;;6383532;27;20239;-54
2022/10/20 14:09:33;;;;;;;4.17;4.07;;;14.80;1.00;;;;;;6375210;27;20226;-53
2022/10/20 14:12:36;;;;;;;4.50;4.40;;;14.80;1.00;;;;;;6385720;27;20238;-53
2022/10/20 14:15:39;;;;;;;5.00;4.63;;;14.70;1.00;;;;;;6381583;27;20226;-53
2022/10/20 14:18:44;;;;;;;4.50;4.30;;;14.60;1.00;;;;;;6384116;27;20268;-55
2022/10/20 14:21:49;;;;;;;4.47;4.07;;;14.50;1.00;;;;;;6380972;27;20231;-59
2022/10/20 14:24:55;;;;;;;5.67;4.20;;;14.40;1.00;;;;;;6384528;27;20242;-53
2022/10/20 14:27:59;;;;;;;3.93;3.73;;;14.30;1.00;;;;;;6384303;27;20727;-53
2022/10/20 14:31:07;;;;;;;4.63;4.20;;;14.30;1.00;;;;;;6380242;27;20231;-53
2022/10/20 14:34:22;;;;;;;3.90;3.70;;;14.20;1.00;;;;;;6383427;27;20231;-54
2022/10/20 14:37:30;;;;;;;3.87;3.70;;;14.20;1.00;;;;;;6377061;27;20775;-53
2022/10/20 14:40:35;;;;;;;5.43;4.33;;;14.20;1.00;;;;;;6380323;27;20878;-53
2022/10/20 14:43:40;;;;;;;3.60;3.43;;;14.10;1.00;;;;;;6386039;27;20232;-53
2022/10/20 14:46:47;;;;;;;4.37;3.97;;;14.10;1.00;;;;;;6384448;27;20238;-55
2022/10/20 14:49:54;;;;;;;4.40;4.20;;;14.00;1.00;;;;;;6382679;27;20598;-55
2022/10/20 14:52:57;;;;;;;4.20;4.00;;;14.00;1.00;;;;;;6381945;27;20276;-53
2022/10/20 14:56:01;;;;;;;4.00;3.70;;;14.00;1.00;;;;;;6385286;27;20639;-53
2022/10/20 14:59:13;;;;;;;3.90;3.70;;;13.90;1.00;;;;;;6385026;27;20793;-55
2022/10/20 15:02:19;;;;;;;4.43;4.03;;;13.90;1.00;;;;;;6378554;27;20274;-53
2022/10/20 15:05:32;;;;;;;3.90;3.70;;;13.80;1.00;;;;;;6384539;27;20254;-53
2022/10/20 15:08:35;;;;;;;4.30;3.90;;;13.80;1.00;;;;;;6381396;27;20226;-54
2022/10/20 15:11:39;;;;;;;3.67;3.57;;;13.60;1.00;;;;;;6380486;27;20476;-54
2022/10/20 15:14:43;;;;;;;5.07;3.83;;;13.60;1.00;;;;;;6383855;27;20247;-54
2022/10/20 15:17:48;;;;;;;3.97;3.80;;;13.40;1.00;;;;;;6380346;27;20234;-54
2022/10/20 15:20:53;;;;;;;4.70;4.30;;;13.40;1.00;;;;;;6384397;27;20247;-54
2022/10/20 15:23:55;;;;;;;4.63;4.40;;;13.30;1.00;;;;;;6384493;27;20234;-54
2022/10/20 15:26:59;;;;;;;4.53;4.23;;;13.20;1.00;;;;;;6376406;27;20230;-54
2022/10/20 15:30:02;;;;;;;3.93;3.63;;;13.10;1.00;;;;;;6384849;27;20242;-52
2022/10/20 15:33:04;;;;;;;4.47;4.27;;;13.00;1.00;;;;;;6381606;27;20235;-53
2022/10/20 15:36:14;;;;;;;4.50;4.20;;;12.90;1.00;;;;;;6376652;27;20734;-53
2022/10/20 15:39:17;;;;;;;4.53;4.33;;;12.80;1.00;;;;;;6381815;27;20227;-54
2022/10/20 15:42:20;;;;;;;5.17;4.90;;;12.80;1.00;;;;;;6383061;27;20620;-54
2022/10/20 15:45:25;;;;;;;5.07;4.80;;;12.70;1.00;;;;;;6383713;27;20230;-53
2022/10/20 15:48:27;;;;;;;5.03;4.73;;;12.60;1.00;;;;;;6383307;27;20246;-53
2022/10/20 15:51:34;;;;;;;5.73;5.43;;;12.50;1.00;;;;;;6380842;27;20412;-56
2022/10/20 15:54:36;;;;;;;6.00;5.60;;;12.50;1.00;;;;;;6382717;27;20238;-53
2022/10/20 15:57:39;;;;;;;6.00;5.53;;;12.40;1.00;;;;;;6384450;27;20230;-55
2022/10/20 16:00:42;;;;;;;5.83;5.40;;;12.30;1.00;;;;;;6387285;27;20726;-54
2022/10/20 16:03:46;;;;;;;5.17;4.87;;;12.20;1.00;;;;;;6380888;27;20234;-58
2022/10/20 16:06:52;;;;;;;5.67;5.20;;;12.20;1.00;;;;;;6388633;27;20230;-54
2022/10/20 16:10:00;;;;;;;6.50;6.00;;;12.10;1.00;;;;;;6390313;27;20233;-54
2022/10/20 16:13:03;;;;;;;6.47;5.87;;;12.10;1.00;;;;;;6391545;27;20250;-57
2022/10/20 16:16:08;;;;;;;5.70;5.40;;;12.00;1.00;;;;;;6387262;27;20241;-53
2022/10/20 16:19:10;;;;;;;6.20;5.80;;;12.00;1.00;;;;;;6388734;27;20234;-53
2022/10/20 16:22:15;;;;;;;5.80;5.50;;;12.00;1.00;;;;;;6388540;27;20238;-54
2022/10/20 16:25:18;;;;;;;5.60;5.20;;;11.90;1.00;;;;;;6382456;27;20242;-54
2022/10/20 16:28:20;;;;;;;6.23;5.83;;;11.80;1.00;;;;;;6388079;27;20231;-54
2022/10/20 16:31:23;;;;;;;6.67;6.10;;;11.70;1.00;;;;;;6379952;27;20902;-55
2022/10/20 16:34:27;;;;;;;6.17;5.57;;;11.70;1.00;;;;;;6385701;27;20310;-57